Main page
METAR-TAF:

METAR-TAF

Airports :

Monticello Municipal Airport

Monticello, Arkansas, United States

latitude: 33-38-18N, longitude: 091-45-04W, elevation: 269 ft

Current weather observation

The report was made 1 hour and 0 minutes ago, at 05:53 UTC
Calm wind
Temperature 63°F
Humidity 94%
Pressure 29.95 in. Hg
Visibility: 10 miles
Clear sky

METAR: KLLQ 130553Z AUTO 00000KT 10SM CLR 17/16 A2995 RMK AO2 SLP140 T01720161 10289 20172 403000156 58003

Time: 01:53 (06:53 UTC)

Forecast

The report was made 1 hour and 33 minutes ago, at 05:20 UTC
Forecast valid from 13 at 06 UTC to 14 at 06 UTC
Wind 5 mph from variable directions
Visibility: 6 miles
Clear sky

TAF: KLLQ 130520Z 1306/1406 VRB04KT P6SM SKC

Weather observations and forecasts of more than 4000 airports (METAR and TAF reports).

The available stations are represented by yellow and red dots on the map.

Hover mouse over dot to see the name of the station.

Then click to see weather observations and forecasts.

To change the map : click on the green buttons with a black cross to zoom in, on the green button with a dash to zoom out, or on the green arrows for adjacent maps.


METAR-TAF: